Impacts METAR Board
IDs:

KLAS - Las Vegas/McCarran I, NV, US

Updated at: 1500 UTC 23 Jun 2018
Potential Impact None Slight Moderate High
Time 23/03Z 23/04Z 23/05Z 23/06Z 23/07Z 23/08Z 23/09Z 23/10Z 23/11Z 23/12Z 23/13Z 23/14Z 23/15Z
Temp105 103 101 97 95 92 91 88 88 86 86 86 89
Dewpt26 26 19 13 12 13 11 17 17 16 16 23 25
Altim29.69 29.70 29.71 29.71 29.70 29.69 29.69 29.69 29.69 29.70 29.72 29.73 29.75
VIS10 10 10 10 10 10 10 10 10 10 10 10 10
CIG-- -- -- -- -- -- -- -- -- -- -- -- --
CoverFEWFEWFEWSCTFEWCLRCLRCLRCLRFEWFEWFEWFEW
FltCatVFRVFRVFRVFRVFRVFRVFRVFRVFRVFRVFRVFRVFR
WX--------------------------
WDir2002202302402102002001902400000
WSpd4 5 8 6 6 4 5 6 4 0 0 0 0
WGst-- -- -- -- -- -- -- -- -- -- -- -- --
Raw hourly METARs
KLAS 230256Z 20004KT 10SM FEW250 40/M03 A2969 RMK AO2 SLP019 T04061033 56011
KLAS 230356Z 22005KT 10SM FEW250 39/M04 A2970 RMK AO2 SLP022 T03941033
KLAS 230456Z 23008KT 10SM FEW250 38/M07 A2971 RMK AO2 SLP025 T03831072
KLAS 230556Z 24006KT 10SM SCT250 36/M10 A2971 RMK AO2 SLP024 T03611106 10411 20361 50005
KLAS 230656Z 21006KT 10SM FEW250 35/M11 A2970 RMK AO2 SLP023 T03501111
KLAS 230756Z 20004KT 10SM CLR 33/M11 A2969 RMK AO2 SLP020 T03331106 404170294
KLAS 230856Z 20005KT 10SM CLR 33/M11 A2969 RMK AO2 SLP021 T03281117 55004
KLAS 230956Z 19006KT 10SM CLR 31/M09 A2969 RMK AO2 SLP019 T03111083
KLAS 231056Z 24004KT 10SM CLR 31/M09 A2969 RMK AO2 SLP019 T03111083
KLAS 231156Z 00000KT 10SM FEW250 30/M09 A2970 RMK AO2 SLP022 T03001089 10361 20300 53001
KLAS 231256Z 00000KT 10SM FEW250 30/M09 A2972 RMK AO2 SLP029 T03001089
KLAS 231356Z 00000KT 10SM FEW250 30/M05 A2973 RMK AO2 SLP034 T03001050
KLAS 231456Z 00000KT 10SM FEW250 32/M04 A2975 RMK AO2 SLP040 T03171039 51017



Page loaded:  15:29 UTC  |   08:29 AM Pacific  |   09:29 AM Mountain  |   10:29 AM Central  |   11:29 AM Eastern

 

ADVISORIES

FORECASTS

FORECASTS

OBSERVATIONS

USER TOOLS

ABOUT US